sensor_id;sensor_type;location;lat;lon;timestamp;P1;durP1;ratioP1;P2;durP2;ratioP2
8737;SDS011;4405;49.272;8.590;2023-12-07T00:00:03;30.50;;;27.40;;
8737;SDS011;4405;49.272;8.590;2023-12-07T00:02:31;18.27;;;15.90;;
8737;SDS011;4405;49.272;8.590;2023-12-07T00:04:57;16.47;;;14.53;;
8737;SDS011;4405;49.272;8.590;2023-12-07T00:07:24;17.10;;;14.00;;
8737;SDS011;4405;49.272;8.590;2023-12-07T00:09:50;13.73;;;10.57;;
8737;SDS011;4405;49.272;8.590;2023-12-07T00:12:17;15.43;;;11.20;;
8737;SDS011;4405;49.272;8.590;2023-12-07T00:14:43;13.83;;;10.50;;
8737;SDS011;4405;49.272;8.590;2023-12-07T00:17:09;17.27;;;11.00;;
8737;SDS011;4405;49.272;8.590;2023-12-07T00:19:37;13.53;;;10.30;;
8737;SDS011;4405;49.272;8.590;2023-12-07T00:22:02;14.90;;;10.33;;
8737;SDS011;4405;49.272;8.590;2023-12-07T00:24:29;15.77;;;11.70;;
8737;SDS011;4405;49.272;8.590;2023-12-07T00:26:55;14.83;;;11.00;;
8737;SDS011;4405;49.272;8.590;2023-12-07T00:29:22;17.43;;;11.40;;
8737;SDS011;4405;49.272;8.590;2023-12-07T00:31:48;15.90;;;11.10;;
8737;SDS011;4405;49.272;8.590;2023-12-07T00:34:15;12.80;;;10.30;;
8737;SDS011;4405;49.272;8.590;2023-12-07T00:36:43;13.93;;;10.37;;
8737;SDS011;4405;49.272;8.590;2023-12-07T00:39:10;15.50;;;11.07;;
8737;SDS011;4405;49.272;8.590;2023-12-07T00:41:37;14.63;;;11.43;;
8737;SDS011;4405;49.272;8.590;2023-12-07T00:44:03;11.77;;;8.87;;
8737;SDS011;4405;49.272;8.590;2023-12-07T00:46:30;8.87;;;7.73;;
8737;SDS011;4405;49.272;8.590;2023-12-07T00:48:57;16.73;;;12.50;;
8737;SDS011;4405;49.272;8.590;2023-12-07T00:51:23;12.37;;;10.50;;
8737;SDS011;4405;49.272;8.590;2023-12-07T00:53:51;15.47;;;11.20;;
8737;SDS011;4405;49.272;8.590;2023-12-07T00:56:17;16.60;;;10.97;;
8737;SDS011;4405;49.272;8.590;2023-12-07T00:58:44;14.13;;;10.23;;
8737;SDS011;4405;49.272;8.590;2023-12-07T01:01:10;14.23;;;10.97;;
8737;SDS011;4405;49.272;8.590;2023-12-07T01:03:36;15.30;;;10.80;;
8737;SDS011;4405;49.272;8.590;2023-12-07T01:06:05;15.87;;;11.50;;
8737;SDS011;4405;49.272;8.590;2023-12-07T01:08:32;12.03;;;9.90;;
8737;SDS011;4405;49.272;8.590;2023-12-07T01:10:59;12.40;;;10.10;;
8737;SDS011;4405;49.272;8.590;2023-12-07T01:13:26;14.80;;;10.97;;
8737;SDS011;4405;49.272;8.590;2023-12-07T01:15:52;13.67;;;10.20;;
8737;SDS011;4405;49.272;8.590;2023-12-07T01:18:19;14.97;;;11.13;;
8737;SDS011;4405;49.272;8.590;2023-12-07T01:20:45;13.40;;;10.50;;
8737;SDS011;4405;49.272;8.590;2023-12-07T01:23:11;12.70;;;10.67;;
8737;SDS011;4405;49.272;8.590;2023-12-07T01:25:38;15.17;;;11.83;;
8737;SDS011;4405;49.272;8.590;2023-12-07T01:28:05;12.53;;;9.63;;
8737;SDS011;4405;49.272;8.590;2023-12-07T01:30:32;11.33;;;7.90;;
8737;SDS011;4405;49.272;8.590;2023-12-07T01:32:58;9.17;;;8.20;;
8737;SDS011;4405;49.272;8.590;2023-12-07T01:35:24;7.83;;;7.00;;
8737;SDS011;4405;49.272;8.590;2023-12-07T01:37:51;7.87;;;7.07;;
8737;SDS011;4405;49.272;8.590;2023-12-07T01:40:17;8.77;;;7.40;;
8737;SDS011;4405;49.272;8.590;2023-12-07T01:42:48;7.60;;;6.90;;
8737;SDS011;4405;49.272;8.590;2023-12-07T01:45:16;9.27;;;7.47;;
8737;SDS011;4405;49.272;8.590;2023-12-07T01:47:43;8.07;;;7.00;;
8737;SDS011;4405;49.272;8.590;2023-12-07T01:50:09;9.03;;;7.90;;
8737;SDS011;4405;49.272;8.590;2023-12-07T01:52:36;10.33;;;8.50;;
8737;SDS011;4405;49.272;8.590;2023-12-07T01:55:04;13.17;;;10.00;;
8737;SDS011;4405;49.272;8.590;2023-12-07T01:57:31;12.27;;;10.10;;
8737;SDS011;4405;49.272;8.590;2023-12-07T01:59:57;12.47;;;9.97;;
8737;SDS011;4405;49.272;8.590;2023-12-07T02:02:25;11.10;;;8.30;;
8737;SDS011;4405;49.272;8.590;2023-12-07T02:04:52;9.43;;;7.77;;
8737;SDS011;4405;49.272;8.590;2023-12-07T02:07:18;12.13;;;7.37;;
8737;SDS011;4405;49.272;8.590;2023-12-07T02:09:44;9.27;;;7.07;;
8737;SDS011;4405;49.272;8.590;2023-12-07T02:12:11;9.17;;;7.70;;
8737;SDS011;4405;49.272;8.590;2023-12-07T02:14:37;8.40;;;7.60;;
8737;SDS011;4405;49.272;8.590;2023-12-07T02:17:06;9.87;;;7.90;;
8737;SDS011;4405;49.272;8.590;2023-12-07T02:19:43;17.03;;;9.40;;
8737;SDS011;4405;49.272;8.590;2023-12-07T02:22:14;14.57;;;10.40;;
8737;SDS011;4405;49.272;8.590;2023-12-07T02:24:44;16.63;;;10.00;;
8737;SDS011;4405;49.272;8.590;2023-12-07T02:27:14;10.10;;;8.40;;
8737;SDS011;4405;49.272;8.590;2023-12-07T02:29:41;9.23;;;8.23;;
8737;SDS011;4405;49.272;8.590;2023-12-07T02:32:07;10.00;;;7.67;;
8737;SDS011;4405;49.272;8.590;2023-12-07T02:34:34;9.70;;;7.87;;
8737;SDS011;4405;49.272;8.590;2023-12-07T02:37:00;10.70;;;7.90;;
8737;SDS011;4405;49.272;8.590;2023-12-07T02:39:27;9.93;;;8.00;;
8737;SDS011;4405;49.272;8.590;2023-12-07T02:41:53;10.60;;;7.90;;
8737;SDS011;4405;49.272;8.590;2023-12-07T02:44:22;8.70;;;7.80;;
8737;SDS011;4405;49.272;8.590;2023-12-07T02:46:48;12.03;;;8.93;;
8737;SDS011;4405;49.272;8.590;2023-12-07T02:49:15;11.03;;;8.53;;
8737;SDS011;4405;49.272;8.590;2023-12-07T02:51:43;12.40;;;8.77;;
8737;SDS011;4405;49.272;8.590;2023-12-07T02:54:10;11.33;;;9.10;;
8737;SDS011;4405;49.272;8.590;2023-12-07T02:56:36;13.47;;;10.37;;
8737;SDS011;4405;49.272;8.590;2023-12-07T02:59:02;10.07;;;7.90;;
8737;SDS011;4405;49.272;8.590;2023-12-07T03:01:30;17.43;;;12.73;;
8737;SDS011;4405;49.272;8.590;2023-12-07T03:03:56;14.20;;;9.83;;
8737;SDS011;4405;49.272;8.590;2023-12-07T03:06:23;13.27;;;10.03;;
8737;SDS011;4405;49.272;8.590;2023-12-07T03:08:49;13.33;;;10.27;;
8737;SDS011;4405;49.272;8.590;2023-12-07T03:11:15;13.07;;;9.37;;
8737;SDS011;4405;49.272;8.590;2023-12-07T03:13:41;8.07;;;6.97;;
8737;SDS011;4405;49.272;8.590;2023-12-07T03:16:08;7.87;;;6.27;;
8737;SDS011;4405;49.272;8.590;2023-12-07T03:18:37;11.23;;;7.43;;
8737;SDS011;4405;49.272;8.590;2023-12-07T03:21:03;11.47;;;7.50;;
8737;SDS011;4405;49.272;8.590;2023-12-07T03:23:29;9.40;;;6.87;;
8737;SDS011;4405;49.272;8.590;2023-12-07T03:25:56;17.27;;;10.73;;
8737;SDS011;4405;49.272;8.590;2023-12-07T03:28:22;10.77;;;8.67;;
8737;SDS011;4405;49.272;8.590;2023-12-07T03:30:48;11.73;;;8.87;;
8737;SDS011;4405;49.272;8.590;2023-12-07T03:33:15;10.87;;;8.50;;
8737;SDS011;4405;49.272;8.590;2023-12-07T03:35:42;12.27;;;8.53;;
8737;SDS011;4405;49.272;8.590;2023-12-07T03:38:09;13.03;;;10.10;;
8737;SDS011;4405;49.272;8.590;2023-12-07T03:40:35;13.43;;;9.47;;
8737;SDS011;4405;49.272;8.590;2023-12-07T03:43:01;15.43;;;10.43;;
8737;SDS011;4405;49.272;8.590;2023-12-07T03:45:29;16.27;;;11.10;;
8737;SDS011;4405;49.272;8.590;2023-12-07T03:47:55;16.13;;;11.50;;
8737;SDS011;4405;49.272;8.590;2023-12-07T03:50:22;18.43;;;9.80;;
8737;SDS011;4405;49.272;8.590;2023-12-07T03:52:49;12.33;;;8.23;;
8737;SDS011;4405;49.272;8.590;2023-12-07T03:55:16;12.83;;;8.17;;
8737;SDS011;4405;49.272;8.590;2023-12-07T03:57:44;15.20;;;9.93;;
8737;SDS011;4405;49.272;8.590;2023-12-07T04:00:10;14.67;;;10.80;;
8737;SDS011;4405;49.272;8.590;2023-12-07T04:02:37;13.57;;;10.83;;
8737;SDS011;4405;49.272;8.590;2023-12-07T04:05:03;13.67;;;10.03;;
8737;SDS011;4405;49.272;8.590;2023-12-07T04:07:30;17.87;;;10.60;;
8737;SDS011;4405;49.272;8.590;2023-12-07T04:09:58;18.13;;;11.53;;
8737;SDS011;4405;49.272;8.590;2023-12-07T04:12:24;14.40;;;10.87;;
8737;SDS011;4405;49.272;8.590;2023-12-07T04:14:50;12.37;;;10.40;;
8737;SDS011;4405;49.272;8.590;2023-12-07T04:17:17;14.73;;;10.00;;
8737;SDS011;4405;49.272;8.590;2023-12-07T04:19:44;13.77;;;10.17;;
8737;SDS011;4405;49.272;8.590;2023-12-07T04:22:10;14.17;;;10.77;;
8737;SDS011;4405;49.272;8.590;2023-12-07T04:24:36;14.30;;;10.97;;
8737;SDS011;4405;49.272;8.590;2023-12-07T04:27:04;14.80;;;9.60;;
8737;SDS011;4405;49.272;8.590;2023-12-07T04:29:33;14.57;;;9.53;;
8737;SDS011;4405;49.272;8.590;2023-12-07T04:32:01;12.97;;;9.87;;
8737;SDS011;4405;49.272;8.590;2023-12-07T04:34:27;15.27;;;10.53;;
8737;SDS011;4405;49.272;8.590;2023-12-07T04:36:53;24.93;;;15.43;;
8737;SDS011;4405;49.272;8.590;2023-12-07T04:39:20;27.87;;;14.73;;
8737;SDS011;4405;49.272;8.590;2023-12-07T04:41:46;20.37;;;12.67;;
8737;SDS011;4405;49.272;8.590;2023-12-07T04:44:14;14.67;;;10.60;;
8737;SDS011;4405;49.272;8.590;2023-12-07T04:46:40;13.83;;;9.87;;
8737;SDS011;4405;49.272;8.590;2023-12-07T04:49:07;13.67;;;8.70;;
8737;SDS011;4405;49.272;8.590;2023-12-07T04:51:33;14.00;;;9.80;;
8737;SDS011;4405;49.272;8.590;2023-12-07T04:53:59;15.33;;;8.93;;
8737;SDS011;4405;49.272;8.590;2023-12-07T04:56:26;16.67;;;10.10;;
8737;SDS011;4405;49.272;8.590;2023-12-07T04:58:52;14.20;;;9.87;;
8737;SDS011;4405;49.272;8.590;2023-12-07T05:01:20;14.80;;;9.97;;
8737;SDS011;4405;49.272;8.590;2023-12-07T05:03:46;15.27;;;9.97;;
8737;SDS011;4405;49.272;8.590;2023-12-07T05:06:12;16.13;;;9.97;;
8737;SDS011;4405;49.272;8.590;2023-12-07T05:08:39;14.90;;;10.27;;
8737;SDS011;4405;49.272;8.590;2023-12-07T05:11:05;15.77;;;10.70;;
8737;SDS011;4405;49.272;8.590;2023-12-07T05:13:32;17.27;;;11.10;;
8737;SDS011;4405;49.272;8.590;2023-12-07T05:16:00;13.33;;;10.00;;
8737;SDS011;4405;49.272;8.590;2023-12-07T05:18:29;13.87;;;10.50;;
8737;SDS011;4405;49.272;8.590;2023-12-07T05:20:55;14.03;;;10.63;;
8737;SDS011;4405;49.272;8.590;2023-12-07T05:23:22;15.07;;;9.73;;
8737;SDS011;4405;49.272;8.590;2023-12-07T05:25:48;15.37;;;9.90;;
8737;SDS011;4405;49.272;8.590;2023-12-07T05:28:14;13.73;;;9.33;;
8737;SDS011;4405;49.272;8.590;2023-12-07T05:30:41;13.73;;;8.83;;
8737;SDS011;4405;49.272;8.590;2023-12-07T05:33:07;13.47;;;9.67;;
8737;SDS011;4405;49.272;8.590;2023-12-07T05:35:35;13.90;;;9.67;;
8737;SDS011;4405;49.272;8.590;2023-12-07T05:38:02;15.03;;;10.23;;
8737;SDS011;4405;49.272;8.590;2023-12-07T05:40:28;13.37;;;9.93;;
8737;SDS011;4405;49.272;8.590;2023-12-07T05:42:55;17.30;;;10.17;;
8737;SDS011;4405;49.272;8.590;2023-12-07T05:45:21;18.17;;;10.13;;
8737;SDS011;4405;49.272;8.590;2023-12-07T05:47:48;14.30;;;10.27;;
8737;SDS011;4405;49.272;8.590;2023-12-07T05:50:14;14.07;;;10.40;;
8737;SDS011;4405;49.272;8.590;2023-12-07T05:52:42;18.83;;;9.83;;
8737;SDS011;4405;49.272;8.590;2023-12-07T05:55:09;14.27;;;9.83;;
8737;SDS011;4405;49.272;8.590;2023-12-07T05:57:35;14.37;;;9.43;;
8737;SDS011;4405;49.272;8.590;2023-12-07T06:00:01;14.73;;;9.83;;
8737;SDS011;4405;49.272;8.590;2023-12-07T06:02:28;18.10;;;11.23;;
8737;SDS011;4405;49.272;8.590;2023-12-07T06:04:55;14.53;;;10.13;;
8737;SDS011;4405;49.272;8.590;2023-12-07T06:07:21;14.43;;;10.23;;
8737;SDS011;4405;49.272;8.590;2023-12-07T06:09:49;14.87;;;10.50;;
8737;SDS011;4405;49.272;8.590;2023-12-07T06:12:15;14.73;;;10.17;;
8737;SDS011;4405;49.272;8.590;2023-12-07T06:14:42;17.93;;;10.70;;
8737;SDS011;4405;49.272;8.590;2023-12-07T06:17:08;14.90;;;11.00;;
8737;SDS011;4405;49.272;8.590;2023-12-07T06:19:34;17.00;;;10.77;;
8737;SDS011;4405;49.272;8.590;2023-12-07T06:22:01;13.37;;;9.97;;
8737;SDS011;4405;49.272;8.590;2023-12-07T06:24:27;13.63;;;10.30;;
8737;SDS011;4405;49.272;8.590;2023-12-07T06:26:55;17.23;;;11.13;;
8737;SDS011;4405;49.272;8.590;2023-12-07T06:29:21;16.17;;;11.00;;
8737;SDS011;4405;49.272;8.590;2023-12-07T06:31:47;16.17;;;11.63;;
8737;SDS011;4405;49.272;8.590;2023-12-07T06:34:14;14.23;;;10.93;;
8737;SDS011;4405;49.272;8.590;2023-12-07T06:36:41;12.20;;;9.90;;
8737;SDS011;4405;49.272;8.590;2023-12-07T06:39:08;11.23;;;7.17;;
8737;SDS011;4405;49.272;8.590;2023-12-07T06:41:35;7.83;;;7.10;;
8737;SDS011;4405;49.272;8.590;2023-12-07T06:44:03;8.57;;;7.67;;
8737;SDS011;4405;49.272;8.590;2023-12-07T06:46:29;8.30;;;7.53;;
8737;SDS011;4405;49.272;8.590;2023-12-07T06:48:56;8.17;;;7.33;;
8737;SDS011;4405;49.272;8.590;2023-12-07T06:51:22;8.47;;;7.67;;
8737;SDS011;4405;49.272;8.590;2023-12-07T06:53:48;8.37;;;6.90;;
8737;SDS011;4405;49.272;8.590;2023-12-07T06:56:15;8.87;;;7.37;;
8737;SDS011;4405;49.272;8.590;2023-12-07T06:58:41;10.33;;;8.53;;
8737;SDS011;4405;49.272;8.590;2023-12-07T07:01:09;11.43;;;8.90;;
8737;SDS011;4405;49.272;8.590;2023-12-07T07:03:35;15.93;;;10.47;;
8737;SDS011;4405;49.272;8.590;2023-12-07T07:06:01;12.20;;;10.13;;
8737;SDS011;4405;49.272;8.590;2023-12-07T07:08:28;14.57;;;10.27;;
8737;SDS011;4405;49.272;8.590;2023-12-07T07:10:55;13.27;;;9.73;;
8737;SDS011;4405;49.272;8.590;2023-12-07T07:13:21;12.40;;;9.93;;
8737;SDS011;4405;49.272;8.590;2023-12-07T07:15:47;13.53;;;9.93;;
8737;SDS011;4405;49.272;8.590;2023-12-07T07:18:15;14.43;;;9.63;;
8737;SDS011;4405;49.272;8.590;2023-12-07T07:20:41;12.17;;;9.73;;
8737;SDS011;4405;49.272;8.590;2023-12-07T07:23:08;15.23;;;10.40;;
8737;SDS011;4405;49.272;8.590;2023-12-07T07:25:35;15.17;;;10.43;;
8737;SDS011;4405;49.272;8.590;2023-12-07T07:28:01;12.87;;;9.30;;
8737;SDS011;4405;49.272;8.590;2023-12-07T07:30:28;15.50;;;10.37;;
8737;SDS011;4405;49.272;8.590;2023-12-07T07:32:54;15.07;;;10.93;;
8737;SDS011;4405;49.272;8.590;2023-12-07T07:35:22;17.70;;;11.83;;
8737;SDS011;4405;49.272;8.590;2023-12-07T07:37:48;16.83;;;10.63;;
8737;SDS011;4405;49.272;8.590;2023-12-07T07:40:15;13.50;;;10.10;;
8737;SDS011;4405;49.272;8.590;2023-12-07T07:42:41;16.13;;;10.93;;
8737;SDS011;4405;49.272;8.590;2023-12-07T07:45:08;17.00;;;10.13;;
8737;SDS011;4405;49.272;8.590;2023-12-07T07:47:34;18.10;;;11.70;;
8737;SDS011;4405;49.272;8.590;2023-12-07T07:50:00;16.40;;;11.23;;
8737;SDS011;4405;49.272;8.590;2023-12-07T07:52:31;18.33;;;11.57;;
8737;SDS011;4405;49.272;8.590;2023-12-07T07:54:58;19.73;;;11.73;;
8737;SDS011;4405;49.272;8.590;2023-12-07T07:57:24;19.47;;;13.23;;
8737;SDS011;4405;49.272;8.590;2023-12-07T07:59:50;18.63;;;12.13;;
8737;SDS011;4405;49.272;8.590;2023-12-07T08:02:17;19.00;;;11.87;;
8737;SDS011;4405;49.272;8.590;2023-12-07T08:04:43;17.83;;;11.17;;
8737;SDS011;4405;49.272;8.590;2023-12-07T08:07:09;18.90;;;12.07;;
8737;SDS011;4405;49.272;8.590;2023-12-07T08:09:37;20.67;;;11.63;;
8737;SDS011;4405;49.272;8.590;2023-12-07T08:12:05;19.73;;;12.93;;
8737;SDS011;4405;49.272;8.590;2023-12-07T08:14:32;21.67;;;12.80;;
8737;SDS011;4405;49.272;8.590;2023-12-07T08:16:58;22.37;;;12.80;;
8737;SDS011;4405;49.272;8.590;2023-12-07T08:19:24;19.60;;;11.80;;
8737;SDS011;4405;49.272;8.590;2023-12-07T08:21:51;19.60;;;11.70;;
8737;SDS011;4405;49.272;8.590;2023-12-07T08:24:17;23.23;;;12.63;;
8737;SDS011;4405;49.272;8.590;2023-12-07T08:26:45;21.73;;;13.07;;
8737;SDS011;4405;49.272;8.590;2023-12-07T08:29:11;23.20;;;12.73;;
8737;SDS011;4405;49.272;8.590;2023-12-07T08:31:38;23.07;;;13.60;;
8737;SDS011;4405;49.272;8.590;2023-12-07T08:34:05;26.87;;;14.00;;
8737;SDS011;4405;49.272;8.590;2023-12-07T08:36:31;24.10;;;14.73;;
8737;SDS011;4405;49.272;8.590;2023-12-07T08:38:57;23.83;;;13.33;;
8737;SDS011;4405;49.272;8.590;2023-12-07T08:41:24;27.93;;;15.27;;
8737;SDS011;4405;49.272;8.590;2023-12-07T08:43:51;25.80;;;13.83;;
8737;SDS011;4405;49.272;8.590;2023-12-07T08:46:18;22.50;;;13.10;;
8737;SDS011;4405;49.272;8.590;2023-12-07T08:48:44;24.07;;;13.90;;
8737;SDS011;4405;49.272;8.590;2023-12-07T08:51:10;23.67;;;13.97;;
8737;SDS011;4405;49.272;8.590;2023-12-07T08:53:37;23.00;;;13.00;;
8737;SDS011;4405;49.272;8.590;2023-12-07T08:56:04;32.77;;;18.33;;
8737;SDS011;4405;49.272;8.590;2023-12-07T08:58:30;22.17;;;13.97;;
8737;SDS011;4405;49.272;8.590;2023-12-07T09:00:58;23.63;;;15.77;;
8737;SDS011;4405;49.272;8.590;2023-12-07T09:03:24;26.50;;;14.60;;
8737;SDS011;4405;49.272;8.590;2023-12-07T09:05:56;22.80;;;14.07;;
8737;SDS011;4405;49.272;8.590;2023-12-07T09:08:23;28.23;;;15.07;;
8737;SDS011;4405;49.272;8.590;2023-12-07T09:10:49;23.43;;;14.47;;
8737;SDS011;4405;49.272;8.590;2023-12-07T09:13:16;27.17;;;14.43;;
8737;SDS011;4405;49.272;8.590;2023-12-07T09:15:42;27.90;;;14.43;;
8737;SDS011;4405;49.272;8.590;2023-12-07T09:18:10;23.47;;;14.33;;
8737;SDS011;4405;49.272;8.590;2023-12-07T09:20:37;26.30;;;14.53;;
8737;SDS011;4405;49.272;8.590;2023-12-07T09:23:10;23.27;;;13.70;;
8737;SDS011;4405;49.272;8.590;2023-12-07T09:25:37;23.70;;;14.10;;
8737;SDS011;4405;49.272;8.590;2023-12-07T09:28:03;23.87;;;13.63;;
8737;SDS011;4405;49.272;8.590;2023-12-07T09:30:29;24.23;;;14.00;;
8737;SDS011;4405;49.272;8.590;2023-12-07T09:32:58;25.40;;;13.60;;
8737;SDS011;4405;49.272;8.590;2023-12-07T09:35:26;25.83;;;14.53;;
8737;SDS011;4405;49.272;8.590;2023-12-07T09:37:52;24.37;;;13.57;;
8737;SDS011;4405;49.272;8.590;2023-12-07T09:40:19;25.23;;;13.67;;
8737;SDS011;4405;49.272;8.590;2023-12-07T09:42:46;22.90;;;13.43;;
8737;SDS011;4405;49.272;8.590;2023-12-07T09:45:13;22.63;;;14.70;;
8737;SDS011;4405;49.272;8.590;2023-12-07T09:47:41;23.30;;;13.70;;
8737;SDS011;4405;49.272;8.590;2023-12-07T09:50:08;22.87;;;12.97;;
8737;SDS011;4405;49.272;8.590;2023-12-07T09:52:36;25.70;;;13.40;;
8737;SDS011;4405;49.272;8.590;2023-12-07T09:55:03;23.17;;;13.73;;
8737;SDS011;4405;49.272;8.590;2023-12-07T09:57:29;25.87;;;14.53;;
8737;SDS011;4405;49.272;8.590;2023-12-07T09:59:56;23.90;;;14.60;;
8737;SDS011;4405;49.272;8.590;2023-12-07T10:02:22;24.90;;;14.67;;
8737;SDS011;4405;49.272;8.590;2023-12-07T10:04:48;25.80;;;13.73;;
8737;SDS011;4405;49.272;8.590;2023-12-07T10:07:15;24.80;;;13.53;;
8737;SDS011;4405;49.272;8.590;2023-12-07T10:09:43;23.30;;;13.30;;
8737;SDS011;4405;49.272;8.590;2023-12-07T10:12:09;22.07;;;13.73;;
8737;SDS011;4405;49.272;8.590;2023-12-07T10:14:35;23.53;;;13.13;;
8737;SDS011;4405;49.272;8.590;2023-12-07T10:17:02;23.30;;;13.83;;
8737;SDS011;4405;49.272;8.590;2023-12-07T10:19:29;22.70;;;13.80;;
8737;SDS011;4405;49.272;8.590;2023-12-07T10:21:55;19.53;;;12.60;;
8737;SDS011;4405;49.272;8.590;2023-12-07T10:24:22;20.07;;;13.27;;
8737;SDS011;4405;49.272;8.590;2023-12-07T10:26:52;20.40;;;13.40;;
8737;SDS011;4405;49.272;8.590;2023-12-07T10:29:18;21.17;;;13.67;;
8737;SDS011;4405;49.272;8.590;2023-12-07T10:31:45;21.20;;;12.73;;
8737;SDS011;4405;49.272;8.590;2023-12-07T10:34:12;17.77;;;12.47;;
8737;SDS011;4405;49.272;8.590;2023-12-07T10:36:38;23.43;;;13.10;;
8737;SDS011;4405;49.272;8.590;2023-12-07T10:39:04;21.20;;;12.80;;
8737;SDS011;4405;49.272;8.590;2023-12-07T10:41:33;21.13;;;12.80;;
8737;SDS011;4405;49.272;8.590;2023-12-07T10:44:01;18.47;;;11.80;;
8737;SDS011;4405;49.272;8.590;2023-12-07T10:46:30;18.23;;;12.47;;
8737;SDS011;4405;49.272;8.590;2023-12-07T10:49:00;19.33;;;13.23;;
8737;SDS011;4405;49.272;8.590;2023-12-07T10:51:28;17.60;;;12.13;;
8737;SDS011;4405;49.272;8.590;2023-12-07T10:53:56;19.87;;;12.83;;
8737;SDS011;4405;49.272;8.590;2023-12-07T10:56:24;19.47;;;13.33;;
8737;SDS011;4405;49.272;8.590;2023-12-07T10:58:54;16.50;;;11.93;;
8737;SDS011;4405;49.272;8.590;2023-12-07T11:01:22;16.27;;;12.00;;
8737;SDS011;4405;49.272;8.590;2023-12-07T11:03:49;16.90;;;12.27;;
8737;SDS011;4405;49.272;8.590;2023-12-07T11:06:16;23.13;;;17.10;;
8737;SDS011;4405;49.272;8.590;2023-12-07T11:08:43;20.50;;;12.50;;
8737;SDS011;4405;49.272;8.590;2023-12-07T11:11:12;17.40;;;11.83;;
8737;SDS011;4405;49.272;8.590;2023-12-07T11:13:39;16.97;;;11.60;;
8737;SDS011;4405;49.272;8.590;2023-12-07T11:16:11;18.13;;;11.83;;
8737;SDS011;4405;49.272;8.590;2023-12-07T11:18:38;16.43;;;11.53;;
8737;SDS011;4405;49.272;8.590;2023-12-07T11:21:05;18.97;;;12.23;;
8737;SDS011;4405;49.272;8.590;2023-12-07T11:23:31;15.57;;;11.83;;
8737;SDS011;4405;49.272;8.590;2023-12-07T11:25:58;15.07;;;12.07;;
8737;SDS011;4405;49.272;8.590;2023-12-07T11:28:37;17.10;;;12.23;;
8737;SDS011;4405;49.272;8.590;2023-12-07T11:31:05;13.80;;;11.33;;
8737;SDS011;4405;49.272;8.590;2023-12-07T11:33:32;16.23;;;12.07;;
8737;SDS011;4405;49.272;8.590;2023-12-07T11:36:06;15.33;;;11.90;;
8737;SDS011;4405;49.272;8.590;2023-12-07T11:38:33;16.87;;;12.57;;
8737;SDS011;4405;49.272;8.590;2023-12-07T11:40:59;17.20;;;12.43;;
8737;SDS011;4405;49.272;8.590;2023-12-07T11:43:32;15.87;;;11.57;;
8737;SDS011;4405;49.272;8.590;2023-12-07T11:46:03;15.20;;;11.97;;
8737;SDS011;4405;49.272;8.590;2023-12-07T11:48:29;14.23;;;11.77;;
8737;SDS011;4405;49.272;8.590;2023-12-07T11:50:56;15.10;;;11.67;;
8737;SDS011;4405;49.272;8.590;2023-12-07T11:53:25;16.03;;;12.13;;
8737;SDS011;4405;49.272;8.590;2023-12-07T11:55:51;14.20;;;10.87;;
8737;SDS011;4405;49.272;8.590;2023-12-07T11:58:18;13.23;;;11.37;;
8737;SDS011;4405;49.272;8.590;2023-12-07T12:00:45;13.50;;;11.37;;
8737;SDS011;4405;49.272;8.590;2023-12-07T12:03:12;13.87;;;11.17;;
8737;SDS011;4405;49.272;8.590;2023-12-07T12:05:38;14.13;;;10.87;;
8737;SDS011;4405;49.272;8.590;2023-12-07T12:08:05;16.23;;;10.83;;
8737;SDS011;4405;49.272;8.590;2023-12-07T12:10:33;12.97;;;10.60;;
8737;SDS011;4405;49.272;8.590;2023-12-07T12:13:00;11.77;;;10.13;;
8737;SDS011;4405;49.272;8.590;2023-12-07T12:15:27;15.63;;;11.77;;
8737;SDS011;4405;49.272;8.590;2023-12-07T12:17:55;13.17;;;10.87;;
8737;SDS011;4405;49.272;8.590;2023-12-07T12:20:21;13.83;;;11.30;;
8737;SDS011;4405;49.272;8.590;2023-12-07T12:22:48;13.63;;;11.30;;
8737;SDS011;4405;49.272;8.590;2023-12-07T12:25:15;11.70;;;10.50;;
8737;SDS011;4405;49.272;8.590;2023-12-07T12:27:43;12.20;;;10.37;;
8737;SDS011;4405;49.272;8.590;2023-12-07T12:30:11;15.57;;;10.90;;
8737;SDS011;4405;49.272;8.590;2023-12-07T12:32:41;12.90;;;10.27;;
8737;SDS011;4405;49.272;8.590;2023-12-07T12:35:08;12.27;;;10.47;;
8737;SDS011;4405;49.272;8.590;2023-12-07T12:37:34;15.43;;;12.07;;
8737;SDS011;4405;49.272;8.590;2023-12-07T12:40:04;12.73;;;10.83;;
8737;SDS011;4405;49.272;8.590;2023-12-07T12:42:31;12.73;;;10.17;;
8737;SDS011;4405;49.272;8.590;2023-12-07T12:44:58;11.90;;;9.03;;
8737;SDS011;4405;49.272;8.590;2023-12-07T12:47:25;12.13;;;10.20;;
8737;SDS011;4405;49.272;8.590;2023-12-07T12:49:53;16.07;;;11.63;;
8737;SDS011;4405;49.272;8.590;2023-12-07T12:52:20;12.50;;;10.63;;
8737;SDS011;4405;49.272;8.590;2023-12-07T12:54:46;14.43;;;10.57;;
8737;SDS011;4405;49.272;8.590;2023-12-07T12:57:13;14.40;;;11.17;;
8737;SDS011;4405;49.272;8.590;2023-12-07T12:59:40;12.43;;;9.40;;
8737;SDS011;4405;49.272;8.590;2023-12-07T13:02:07;14.33;;;11.30;;
8737;SDS011;4405;49.272;8.590;2023-12-07T13:04:34;13.87;;;10.57;;
8737;SDS011;4405;49.272;8.590;2023-12-07T13:07:00;13.77;;;10.60;;
8737;SDS011;4405;49.272;8.590;2023-12-07T13:09:27;13.10;;;10.63;;
8737;SDS011;4405;49.272;8.590;2023-12-07T13:11:53;15.47;;;9.90;;
8737;SDS011;4405;49.272;8.590;2023-12-07T13:14:20;16.13;;;10.30;;
8737;SDS011;4405;49.272;8.590;2023-12-07T13:16:46;16.20;;;11.33;;
8737;SDS011;4405;49.272;8.590;2023-12-07T13:19:14;16.33;;;11.40;;
8737;SDS011;4405;49.272;8.590;2023-12-07T13:21:40;15.83;;;11.93;;
8737;SDS011;4405;49.272;8.590;2023-12-07T13:24:07;17.73;;;12.30;;
8737;SDS011;4405;49.272;8.590;2023-12-07T13:26:37;14.90;;;11.27;;
8737;SDS011;4405;49.272;8.590;2023-12-07T13:29:04;18.67;;;12.00;;
8737;SDS011;4405;49.272;8.590;2023-12-07T13:31:30;19.20;;;12.20;;
8737;SDS011;4405;49.272;8.590;2023-12-07T13:33:56;18.90;;;12.20;;
8737;SDS011;4405;49.272;8.590;2023-12-07T13:36:24;18.20;;;12.20;;
8737;SDS011;4405;49.272;8.590;2023-12-07T13:38:53;16.93;;;11.77;;
8737;SDS011;4405;49.272;8.590;2023-12-07T13:41:20;15.23;;;11.13;;
8737;SDS011;4405;49.272;8.590;2023-12-07T13:43:47;18.97;;;12.30;;
8737;SDS011;4405;49.272;8.590;2023-12-07T13:46:15;14.97;;;11.43;;
8737;SDS011;4405;49.272;8.590;2023-12-07T13:48:41;16.33;;;11.63;;
8737;SDS011;4405;49.272;8.590;2023-12-07T13:51:08;18.70;;;12.37;;
8737;SDS011;4405;49.272;8.590;2023-12-07T13:53:35;18.53;;;12.00;;
8737;SDS011;4405;49.272;8.590;2023-12-07T13:56:03;17.43;;;11.67;;
8737;SDS011;4405;49.272;8.590;2023-12-07T13:58:29;18.67;;;13.10;;
8737;SDS011;4405;49.272;8.590;2023-12-07T14:00:55;20.43;;;14.27;;
8737;SDS011;4405;49.272;8.590;2023-12-07T14:03:22;17.10;;;12.63;;
8737;SDS011;4405;49.272;8.590;2023-12-07T14:05:49;17.27;;;12.07;;
8737;SDS011;4405;49.272;8.590;2023-12-07T14:08:15;19.07;;;12.37;;
8737;SDS011;4405;49.272;8.590;2023-12-07T14:10:43;16.70;;;11.70;;
8737;SDS011;4405;49.272;8.590;2023-12-07T14:13:08;15.33;;;11.47;;
8737;SDS011;4405;49.272;8.590;2023-12-07T14:15:35;15.60;;;12.17;;
8737;SDS011;4405;49.272;8.590;2023-12-07T14:18:02;16.33;;;12.17;;
8737;SDS011;4405;49.272;8.590;2023-12-07T14:20:28;18.77;;;11.97;;
8737;SDS011;4405;49.272;8.590;2023-12-07T14:22:56;14.20;;;10.97;;
8737;SDS011;4405;49.272;8.590;2023-12-07T14:25:22;19.57;;;11.67;;
8737;SDS011;4405;49.272;8.590;2023-12-07T14:27:50;17.27;;;12.20;;
8737;SDS011;4405;49.272;8.590;2023-12-07T14:30:17;16.17;;;11.80;;
8737;SDS011;4405;49.272;8.590;2023-12-07T14:32:43;17.97;;;11.87;;
8737;SDS011;4405;49.272;8.590;2023-12-07T14:35:16;17.60;;;12.60;;
8737;SDS011;4405;49.272;8.590;2023-12-07T14:37:42;19.47;;;11.90;;
8737;SDS011;4405;49.272;8.590;2023-12-07T14:40:09;17.37;;;12.40;;
8737;SDS011;4405;49.272;8.590;2023-12-07T14:42:35;18.13;;;12.07;;
8737;SDS011;4405;49.272;8.590;2023-12-07T14:45:03;16.43;;;11.47;;
8737;SDS011;4405;49.272;8.590;2023-12-07T14:47:30;16.03;;;11.60;;
8737;SDS011;4405;49.272;8.590;2023-12-07T14:49:57;17.90;;;11.60;;